Time;durP1;ratioP1;P1;durP2;ratioP2;P2;SDS_P1;SDS_P2;PMS_P1;PMS_P2;Temp;Humidity;BMP_temperature;BMP_pressure;BME280_temperature;BME280_humidity;BME280_pressure;Samples;Min_cycle;Max_cycle;Signal;HPM_P1;HPM_P2
2023/07/27 00:01:02;;;;;;;17.67;11.90;;;;;;;-141.97;56.91;47363.41;5039595;28;20200;-78
2023/07/27 00:03:28;;;;;;;19.90;11.20;;;;;;;-141.97;56.79;47363.41;5050623;28;20575;-78
2023/07/27 00:05:53;;;;;;;16.40;12.53;;;;;;;-141.97;56.66;47367.25;5051852;28;20208;-77
2023/07/27 00:08:18;;;;;;;19.07;13.70;;;;;;;-141.97;57.05;47474.88;5051602;28;20496;-78
2023/07/27 00:10:44;;;;;;;21.70;13.27;;;;;;;-141.97;56.67;47332.66;5051134;28;20612;-78
2023/07/27 00:13:09;;;;;;;21.53;15.00;;;;;;;-141.97;56.73;47392.22;5051252;28;20192;-78
2023/07/27 00:15:34;;;;;;;19.57;13.27;;;;;;;-141.97;56.96;47376.84;5051359;28;20586;-78
2023/07/27 00:18:00;;;;;;;18.97;13.40;;;;;;;-141.97;56.80;47373.00;5051370;28;20177;-77
2023/07/27 00:20:25;;;;;;;18.97;13.40;;;;;;;-141.97;57.18;47367.25;5051894;28;20173;-77
2023/07/27 00:22:51;;;;;;;18.80;12.90;;;;;;;-141.97;57.21;47403.75;5051416;28;20280;-78
2023/07/27 00:25:16;;;;;;;20.03;12.60;;;;;;;-141.97;56.83;47386.47;5051641;28;20288;-77
2023/07/27 00:27:41;;;;;;;16.67;11.93;;;;;;;-141.97;56.85;47315.34;5052295;28;20160;-77
2023/07/27 00:30:07;;;;;;;15.83;10.37;;;;;;;-141.97;56.48;47334.56;5049944;28;20162;-79
2023/07/27 00:32:33;;;;;;;16.83;11.83;;;;;;;-141.97;56.56;47376.84;5049964;28;20621;-78
2023/07/27 00:34:58;;;;;;;19.53;13.00;;;;;;;-141.97;56.79;47373.00;5051348;28;20193;-78
2023/07/27 00:37:23;;;;;;;17.30;11.90;;;;;;;-141.97;56.67;47390.31;5083507;28;20256;-78
2023/07/27 00:39:49;;;;;;;20.17;12.33;;;;;;;-141.97;56.87;47376.84;5050790;28;20177;-78
2023/07/27 00:42:14;;;;;;;17.03;11.73;;;;;;;-141.97;56.69;47373.00;5049503;28;20247;-78
2023/07/27 00:44:40;;;;;;;15.87;11.40;;;;;;;-141.97;57.14;47373.00;5051191;28;20189;-78
2023/07/27 00:47:06;;;;;;;14.97;10.97;;;;;;;-141.97;57.29;47476.78;5049367;28;20189;-78
2023/07/27 00:49:32;;;;;;;15.60;10.33;;;;;;;-141.97;57.20;47376.84;5051979;28;20170;-78
2023/07/27 00:52:05;;;;;;;15.23;10.10;;;;;;;-141.97;57.43;47384.53;5043473;28;20827;-78
2023/07/27 00:54:31;;;;;;;16.00;10.10;;;;;;;-141.97;57.38;47388.38;5063629;28;20182;-77
2023/07/27 00:56:56;;;;;;;15.30;10.00;;;;;;;-141.97;57.55;47319.19;5031612;28;20641;-78
2023/07/27 00:59:22;;;;;;;11.23;8.67;;;;;;;-141.97;57.78;47284.59;5051298;28;20226;-77
2023/07/27 01:01:47;;;;;;;13.57;9.17;;;;;;;-141.97;57.26;47394.16;5036039;28;20254;-78
2023/07/27 01:04:13;;;;;;;13.57;9.43;;;;;;;-141.97;57.13;47411.44;5050825;28;20190;-77
2023/07/27 01:06:39;;;;;;;13.77;9.73;;;;;;;-141.97;57.34;47382.63;5050629;28;20169;-78
2023/07/27 01:09:05;;;;;;;11.73;8.07;;;;;;;-141.97;57.06;47380.69;5043582;28;20201;-77
2023/07/27 01:11:52;;;;;;;12.90;9.47;;;;;;;-141.97;57.23;47396.06;5034909;28;20602;-78
2023/07/27 01:14:38;;;;;;;14.33;8.77;;;;;;;-141.97;56.90;47430.66;5049757;28;20182;-78
2023/07/27 01:17:15;;;;;;;14.60;8.63;;;;;;;-141.97;56.91;47365.31;5050656;28;20157;-78
2023/07/27 01:20:03;;;;;;;14.07;9.13;;;;;;;-141.97;57.23;47403.75;5050486;28;20176;-78
2023/07/27 01:22:31;;;;;;;14.90;9.67;;;;;;;-141.97;57.43;47407.59;5050080;28;20212;-78
2023/07/27 01:25:30;;;;;;;14.13;9.33;;;;;;;-141.97;57.03;47384.53;5049325;28;20304;-77
2023/07/27 01:28:07;;;;;;;12.83;9.33;;;;;;;-141.97;56.93;47411.44;5048032;28;20177;-77
2023/07/27 01:30:53;;;;;;;12.40;8.73;;;;;;;-141.97;56.82;47405.69;5050873;28;20161;-77
2023/07/27 01:33:28;;;;;;;12.13;7.93;;;;;;;-141.97;56.72;47390.31;5044465;28;20177;-77
2023/07/27 01:36:08;;;;;;;11.73;8.47;;;;;;;-141.97;56.61;47376.84;5050783;28;20199;-78
2023/07/27 01:38:37;;;;;;;14.53;8.47;;;;;;;-141.97;56.72;47376.84;5064149;28;20224;-78
2023/07/27 01:41:05;;;;;;;12.70;9.10;;;;;;;-141.97;56.65;47353.78;5062905;28;20200;-78
2023/07/27 01:43:31;;;;;;;12.13;8.67;;;;;;;-141.97;56.62;47349.94;5050254;28;20669;-80
2023/07/27 01:45:58;;;;;;;11.33;8.30;;;;;;;-141.97;56.84;47415.28;5050043;28;20299;-78
2023/07/27 01:48:26;;;;;;;13.93;8.90;;;;;;;-141.97;56.86;47492.16;5048407;28;20193;-79
2023/07/27 01:50:52;;;;;;;13.00;8.03;;;;;;;-141.97;57.04;47401.84;5049724;28;20685;-77
2023/07/27 01:53:20;;;;;;;13.00;8.17;;;;;;;-141.97;57.21;47374.94;5048374;28;20181;-77
2023/07/27 01:55:46;;;;;;;13.93;8.80;;;;;;;-141.97;57.49;47622.88;5050341;28;20247;-79
2023/07/27 01:58:15;;;;;;;15.37;9.37;;;;;;;-141.97;57.29;47361.47;5057428;28;20208;-80
2023/07/27 02:00:41;;;;;;;12.03;8.30;;;;;;;-141.97;57.58;47569.06;5042147;28;20173;-78
2023/07/27 02:03:08;;;;;;;15.40;9.00;;;;;;;-141.97;57.42;47398.00;5033136;28;20190;-78
2023/07/27 02:05:34;;;;;;;12.97;8.10;;;;;;;-141.97;57.63;47403.75;5030721;28;20165;-77
2023/07/27 02:07:59;;;;;;;11.93;9.07;;;;;;;-141.97;57.50;47392.22;5019104;28;20283;-77
2023/07/27 02:10:25;;;;;;;14.43;8.80;;;;;;;-141.97;57.77;47407.59;5048308;28;20658;-77
2023/07/27 02:13:08;;;;;;;12.60;7.97;;;;;;;-141.97;57.86;47403.75;5048486;28;20189;-77
2023/07/27 02:15:39;;;;;;;13.27;8.87;;;;;;;-141.97;57.87;47603.66;5048654;28;20188;-78
2023/07/27 02:18:15;;;;;;;15.23;8.87;;;;;;;-141.97;57.76;47365.31;5049443;28;20322;-78
2023/07/27 02:20:42;;;;;;;12.20;7.77;;;;;;;-141.97;57.89;47396.06;5049001;28;20187;-79
2023/07/27 02:23:10;;;;;;;13.23;7.87;;;;;;;-141.97;57.96;47403.75;5049329;28;20189;-78
2023/07/27 02:25:35;;;;;;;12.75;9.70;;;;;;;-141.97;58.04;47415.28;5048498;28;20451;-78
2023/07/27 02:28:01;;;;;;;13.33;9.53;;;;;;;-141.97;58.05;47409.53;5048927;28;20213;-78
2023/07/27 02:30:26;;;;;;;12.77;9.23;;;;;;;-141.97;58.17;47434.50;5049085;28;20205;-78
2023/07/27 02:32:51;;;;;;;12.53;8.03;;;;;;;-141.97;58.38;47430.66;5047788;28;20205;-78
2023/07/27 02:35:17;;;;;;;13.57;8.70;;;;;;;-141.97;58.52;47421.06;5045606;28;20189;-78
2023/07/27 02:37:42;;;;;;;12.37;8.93;;;;;;;-141.97;58.31;47413.38;5047741;28;20240;-79
2023/07/27 02:40:08;;;;;;;14.10;8.93;;;;;;;-141.97;58.47;47401.84;5048958;28;20644;-78
2023/07/27 02:42:33;;;;;;;14.63;9.47;;;;;;;-141.97;58.38;47415.28;5048916;28;20292;-78
2023/07/27 02:44:59;;;;;;;12.57;8.83;;;;;;;-141.97;58.68;47419.13;5048874;28;20193;-78
2023/07/27 02:47:24;;;;;;;11.13;8.13;;;;;;;-141.97;58.76;47290.38;5049141;28;20169;-78
2023/07/27 02:49:50;;;;;;;12.77;9.97;;;;;;;-141.97;58.77;47380.69;5048702;28;20193;-79
2023/07/27 02:52:15;;;;;;;12.40;9.67;;;;;;;-141.97;58.92;47380.69;5049849;28;20181;-78
2023/07/27 02:54:40;;;;;;;19.30;10.20;;;;;;;-141.97;59.07;47505.63;5081506;28;20164;-78
2023/07/27 02:57:06;;;;;;;14.30;10.40;;;;;;;-141.97;59.21;47419.13;5048977;28;20617;-78
2023/07/27 02:59:31;;;;;;;13.20;9.30;;;;;;;-141.97;59.15;47424.91;5049535;28;20185;-78
2023/07/27 03:01:56;;;;;;;14.93;9.67;;;;;;;-141.97;59.15;47388.38;5049757;28;20166;-79
2023/07/27 03:04:22;;;;;;;15.77;10.80;;;;;;;-141.97;59.06;47426.81;5046594;28;20653;-79
2023/07/27 03:06:48;;;;;;;14.30;10.27;;;;;;;-141.97;59.20;47407.59;5049209;28;20188;-80
2023/07/27 03:09:13;;;;;;;14.93;10.37;;;;;;;-141.97;59.60;47659.38;5038730;28;20262;-77
2023/07/27 03:11:39;;;;;;;12.50;8.53;;;;;;;-141.97;60.29;47415.28;5049079;28;20166;-78
2023/07/27 03:14:04;;;;;;;16.77;10.70;;;;;;;-141.97;60.72;47407.59;5048627;28;20166;-77
2023/07/27 03:16:30;;;;;;;13.97;9.07;;;;;;;-141.97;60.53;47415.28;5046820;28;20181;-77
2023/07/27 03:18:56;;;;;;;13.67;9.97;;;;;;;-141.97;60.44;47388.38;5048520;28;20544;-77
2023/07/27 03:21:21;;;;;;;13.00;8.33;;;;;;;-141.97;60.32;47407.59;5048446;28;20329;-78
2023/07/27 03:23:48;;;;;;;16.83;9.23;;;;;;;-141.97;59.95;47323.03;5047040;28;20207;-76
2023/07/27 03:26:14;;;;;;;12.07;8.33;;;;;;;-141.97;59.39;47411.44;5047306;28;20173;-77
2023/07/27 03:28:40;;;;;;;13.87;7.87;;;;;;;-141.97;58.30;47373.00;5051572;28;20176;-77
2023/07/27 03:31:24;;;;;;;11.87;7.40;;;;;;;-141.97;57.62;47426.81;5052242;28;20193;-77
2023/07/27 03:33:50;;;;;;;9.93;6.90;;;;;;;-141.97;57.22;47403.75;5050484;28;20188;-77
2023/07/27 03:36:17;;;;;;;11.50;6.83;;;;;;;-141.97;56.56;47557.53;5052177;28;20185;-77
2023/07/27 03:38:43;;;;;;;11.87;7.00;;;;;;;-141.97;56.33;47394.16;5050829;28;20204;-77
2023/07/27 03:41:08;;;;;;;13.77;6.07;;;;;;;-141.97;55.59;47636.31;5050882;28;20197;-77
2023/07/27 03:43:33;;;;;;;9.30;5.90;;;;;;;-141.97;55.12;47411.44;5052346;28;20193;-77
2023/07/27 03:45:59;;;;;;;7.83;5.53;;;;;;;-141.97;55.06;47572.91;5051655;28;20169;-79
2023/07/27 03:48:25;;;;;;;7.13;5.00;;;;;;;-141.97;54.29;47411.44;5051671;28;20189;-77
2023/07/27 03:50:54;;;;;;;6.20;4.40;;;;;;;-141.97;54.02;47392.22;5052048;28;20263;-78
2023/07/27 03:53:19;;;;;;;7.53;4.10;;;;;;;-141.97;53.60;47421.06;5052269;28;20168;-78
2023/07/27 03:55:45;;;;;;;4.83;3.40;;;;;;;-141.97;53.18;47384.53;5051700;28;20697;-78
2023/07/27 03:58:11;;;;;;;5.73;3.60;;;;;;;-141.97;53.02;47438.34;5052101;28;20184;-78
2023/07/27 04:00:36;;;;;;;5.37;3.77;;;;;;;-141.97;52.79;47422.97;5052217;28;20165;-78
2023/07/27 04:03:02;;;;;;;6.23;4.00;;;;;;;-141.97;52.88;47392.22;5068048;28;20204;-78
2023/07/27 04:05:27;;;;;;;7.73;4.13;;;;;;;-141.97;52.95;47603.66;5053822;28;20185;-77
2023/07/27 04:07:53;;;;;;;4.07;3.20;;;;;;;-141.97;53.02;47426.81;5051965;28;20161;-78
2023/07/27 04:10:18;;;;;;;5.73;4.17;;;;;;;-141.97;53.44;47399.91;5042126;28;20592;-78
2023/07/27 04:12:44;;;;;;;7.00;4.00;;;;;;;-141.97;53.19;47434.50;5051963;28;20246;-78
2023/07/27 04:15:10;;;;;;;5.00;3.77;;;;;;;-141.97;53.11;47363.41;5083968;28;20181;-79
2023/07/27 04:17:35;;;;;;;8.50;4.00;;;;;;;-141.97;53.09;47438.34;5051627;28;20168;-78
2023/07/27 04:20:00;;;;;;;6.77;3.90;;;;;;;-141.97;52.86;47426.81;5051517;28;20165;-78
2023/07/27 04:22:26;;;;;;;6.63;3.97;;;;;;;-141.97;52.72;47386.47;5051338;28;20189;-78
2023/07/27 04:24:51;;;;;;;5.40;4.43;;;;;;;-141.97;52.29;47409.53;5051159;28;20189;-77
2023/07/27 04:27:17;;;;;;;8.07;4.50;;;;;;;-141.97;52.52;47446.03;5051575;28;20586;-79
2023/07/27 04:29:42;;;;;;;8.53;4.53;;;;;;;-141.97;52.87;47532.53;5050181;28;20177;-79
2023/07/27 04:32:08;;;;;;;7.00;4.53;;;;;;;-141.97;52.78;47376.84;5051323;28;20176;-79
2023/07/27 04:34:34;;;;;;;8.53;5.03;;;;;;;-141.97;53.09;47396.06;5051517;28;20188;-79
2023/07/27 04:36:59;;;;;;;8.60;5.47;;;;;;;-141.97;52.83;47424.91;5050563;28;20697;-79
2023/07/27 04:39:25;;;;;;;6.33;4.63;;;;;;;-141.97;52.95;47603.66;5050456;28;20188;-79
2023/07/27 04:41:50;;;;;;;6.67;5.50;;;;;;;-141.97;52.86;47438.34;5051702;28;20158;-78
2023/07/27 04:44:15;;;;;;;7.47;5.67;;;;;;;-141.97;52.99;47403.75;5051164;28;20204;-78
2023/07/27 04:46:41;;;;;;;10.97;5.90;;;;;;;-141.97;53.05;47394.16;5051403;28;20532;-79
2023/07/27 04:49:06;;;;;;;8.93;5.97;;;;;;;-141.97;53.21;47536.38;5051129;28;20173;-78
2023/07/27 04:51:33;;;;;;;8.50;5.97;;;;;;;-141.97;53.37;47324.97;5051335;28;20227;-80
2023/07/27 04:53:58;;;;;;;8.80;6.00;;;;;;;-141.97;53.36;47440.28;5051091;28;20154;-78
2023/07/27 04:56:24;;;;;;;9.93;6.23;;;;;;;-141.97;53.23;47619.03;5051589;28;20193;-79
2023/07/27 04:58:49;;;;;;;8.93;5.90;;;;;;;-141.97;53.09;47407.59;5051222;28;20173;-78
2023/07/27 05:01:15;;;;;;;8.07;6.03;;;;;;;-141.97;53.26;47453.72;5051283;28;20179;-80
2023/07/27 05:03:40;;;;;;;10.70;6.80;;;;;;;-141.97;53.21;47486.41;5050178;28;20204;-78
2023/07/27 05:06:06;;;;;;;10.73;7.20;;;;;;;-141.97;52.96;47421.06;5050827;28;20521;-79
2023/07/27 05:08:31;;;;;;;8.77;6.27;;;;;;;-141.97;52.80;47542.16;5039965;28;20248;-79
2023/07/27 05:10:56;;;;;;;10.47;6.70;;;;;;;-141.97;52.90;47597.88;5051099;28;20246;-79
2023/07/27 05:13:22;;;;;;;7.60;6.80;;;;;;;-141.97;52.82;47392.22;5049782;28;20200;-78
2023/07/27 05:15:48;;;;;;;7.23;5.43;;;;;;;-141.97;52.70;47424.91;5050618;28;20181;-78
2023/07/27 05:18:14;;;;;;;8.33;6.80;;;;;;;-141.97;52.54;47430.66;5050951;28;20168;-78
2023/07/27 05:20:40;;;;;;;10.03;7.00;;;;;;;-141.97;52.05;47471.03;5050978;28;20483;-78
2023/07/27 05:23:05;;;;;;;7.27;6.43;;;;;;;-141.97;51.56;47442.19;5050522;28;20199;-78
2023/07/27 05:25:30;;;;;;;7.30;6.07;;;;;;;-141.97;51.18;47426.81;5039814;28;20259;-78
2023/07/27 05:27:56;;;;;;;7.77;6.10;;;;;;;-141.97;51.45;47436.44;5030700;28;20170;-77
2023/07/27 05:30:21;;;;;;;7.27;6.07;;;;;;;-141.97;51.44;47384.53;5030812;28;20204;-78
2023/07/27 05:32:47;;;;;;;10.23;6.80;;;;;;;-141.97;51.33;47424.91;5030985;28;20166;-80
2023/07/27 05:35:12;;;;;;;10.23;7.20;;;;;;;-141.97;51.29;47413.38;5040603;28;20657;-78
2023/07/27 05:37:37;;;;;;;11.23;6.50;;;;;;;-141.97;51.30;47426.81;5049921;28;20224;-78
2023/07/27 05:40:04;;;;;;;10.13;7.13;;;;;;;-141.97;50.84;47426.81;5050407;28;20197;-78
2023/07/27 05:42:30;;;;;;;8.70;6.63;;;;;;;-141.97;50.76;47324.97;5050328;28;20280;-79
2023/07/27 05:44:56;;;;;;;9.23;7.00;;;;;;;-141.97;50.05;47434.50;5050084;28;20535;-80
2023/07/27 05:47:21;;;;;;;9.33;6.57;;;;;;;-141.97;50.12;47549.84;5050651;28;20185;-79
2023/07/27 05:49:47;;;;;;;11.50;7.68;;;;;;;-141.97;50.25;47438.34;5049311;28;20506;-79
2023/07/27 05:52:12;;;;;;;11.23;7.47;;;;;;;-141.97;50.24;47428.75;5050000;28;20223;-80
2023/07/27 05:54:38;;;;;;;11.43;7.33;;;;;;;-141.97;50.27;47409.53;5048769;28;20415;-78
2023/07/27 05:57:04;;;;;;;10.43;7.30;;;;;;;-141.97;50.58;47453.72;5049763;28;20479;-79
2023/07/27 05:59:29;;;;;;;8.43;6.80;;;;;;;-141.97;49.94;47465.25;5049965;28;20248;-80
2023/07/27 06:01:54;;;;;;;9.03;6.60;;;;;;;-141.97;49.59;47403.75;5048884;28;20454;-80
2023/07/27 06:04:20;;;;;;;8.63;6.00;;;;;;;-141.97;49.60;47424.91;5049526;28;20566;-80
2023/07/27 06:06:46;;;;;;;8.03;6.50;;;;;;;-141.97;49.58;47436.44;5050073;28;20189;-81
2023/07/27 06:09:12;;;;;;;7.13;6.10;;;;;;;-141.97;49.54;47411.44;5039980;28;20285;-81
2023/07/27 06:11:37;;;;;;;10.75;6.38;;;;;;;-141.97;49.45;47538.28;5048956;28;20419;-81
2023/07/27 06:14:03;;;;;;;9.40;6.20;;;;;;;-141.97;49.54;47415.28;5048921;28;20585;-83
2023/07/27 06:16:28;;;;;;;10.48;5.70;;;;;;;-141.97;49.77;47442.19;5048743;28;20433;-81
2023/07/27 06:18:54;;;;;;;9.10;5.97;;;;;;;-141.97;48.99;47442.19;5048723;28;20464;-81
2023/07/27 06:21:19;;;;;;;9.47;6.00;;;;;;;-141.97;48.93;47407.59;5046890;28;20418;-81
2023/07/27 06:23:45;;;;;;;12.97;5.27;;;;;;;-141.97;48.34;47248.09;5050480;28;20185;-80
2023/07/27 06:26:10;;;;;;;7.83;5.10;;;;;;;-141.97;48.63;47430.66;5052534;28;20988;-79
2023/07/27 06:28:36;;;;;;;7.30;5.50;;;;;;;-141.97;48.48;47419.13;5059116;28;20419;-80
2023/07/27 06:31:02;;;;;;;6.80;5.10;;;;;;;-141.97;48.21;47469.09;5054134;28;20466;-81
2023/07/27 06:33:28;;;;;;;9.57;5.65;;;;;;;-141.97;47.96;47446.03;5047692;28;20863;-80
2023/07/27 06:35:53;;;;;;;8.43;5.20;;;;;;;-141.97;47.22;47413.38;5049468;28;20449;-80
2023/07/27 06:38:18;;;;;;;8.13;5.40;;;;;;;-141.97;47.32;47361.47;5049149;28;20931;-81
2023/07/27 06:40:44;;;;;;;7.33;5.30;;;;;;;-141.97;47.11;47351.88;5051020;28;20435;-79
2023/07/27 06:43:09;;;;;;;7.47;5.10;;;;;;;-141.97;47.54;47457.56;5051241;28;20431;-80
2023/07/27 06:45:35;;;;;;;6.50;4.53;;;;;;;-141.97;47.28;47453.72;5051072;28;20415;-80
2023/07/27 06:48:02;;;;;;;7.60;4.53;;;;;;;-141.97;47.51;47438.34;5049502;28;20435;-80
2023/07/27 06:50:28;;;;;;;6.53;4.82;;;;;;;-141.97;47.93;47421.06;5049565;28;20549;-81
2023/07/27 06:52:53;;;;;;;7.23;5.10;;;;;;;-141.97;47.89;47411.44;5049267;28;20637;-81
2023/07/27 06:55:18;;;;;;;9.83;5.20;;;;;;;-141.97;48.18;47380.69;5049611;28;20165;-81
2023/07/27 06:57:44;;;;;;;7.57;4.70;;;;;;;-141.97;48.10;47434.50;5048843;28;20419;-81
2023/07/27 07:00:10;;;;;;;7.63;4.70;;;;;;;-141.97;47.68;47411.44;5048206;28;20482;-80
2023/07/27 07:02:35;;;;;;;6.53;4.27;;;;;;;-141.97;46.81;47438.34;5051301;28;20228;-80
2023/07/27 07:05:01;;;;;;;7.35;3.72;;;;;;;-141.97;46.04;47469.09;5053380;28;20891;-79
2023/07/27 07:07:26;;;;;;;6.97;4.70;;;;;;;-141.97;45.67;47411.44;5052748;28;20411;-81
2023/07/27 07:09:52;;;;;;;8.20;4.50;;;;;;;-141.97;44.88;47444.13;5043933;28;20445;-82
2023/07/27 07:12:18;;;;;;;7.07;4.38;;;;;;;-141.97;44.57;47432.59;5053139;28;20426;-81
2023/07/27 07:14:43;;;;;;;4.80;3.57;;;;;;;-141.97;44.44;47419.13;5052744;28;20161;-80
2023/07/27 07:17:08;;;;;;;5.03;3.70;;;;;;;-141.97;44.26;47417.22;5052042;28;20422;-80
2023/07/27 07:19:34;;;;;;;8.83;4.10;;;;;;;-141.97;43.18;47419.13;5052897;28;20415;-80
2023/07/27 07:21:59;;;;;;;8.70;3.63;;;;;;;-141.97;43.79;47411.44;5052794;28;20418;-80
2023/07/27 07:24:25;;;;;;;12.20;4.40;;;;;;;-141.97;43.13;47374.94;5051673;28;20589;-81
2023/07/27 07:26:50;;;;;;;5.80;3.53;;;;;;;-141.97;42.43;47511.38;5051907;28;20181;-81
2023/07/27 07:29:15;;;;;;;6.75;4.10;;;;;;;-141.97;42.20;47442.19;5051999;28;20426;-82
2023/07/27 07:31:41;;;;;;;6.40;3.80;;;;;;;-141.97;42.54;47428.75;5052226;28;20973;-82
2023/07/27 07:34:06;;;;;;;6.07;3.47;;;;;;;-141.97;41.88;47415.28;5051302;28;20419;-82
2023/07/27 07:36:32;;;;;;;6.50;3.87;;;;;;;-141.97;41.91;47346.09;5051663;28;20507;-84
2023/07/27 07:38:57;;;;;;;5.10;3.77;;;;;;;-141.97;41.13;47384.53;5053567;28;20516;-83
2023/07/27 07:41:23;;;;;;;11.93;4.03;;;;;;;-141.97;41.15;47417.22;5052352;28;20795;-82
2023/07/27 07:43:49;;;;;;;5.65;3.42;;;;;;;-141.97;40.13;47380.69;5051672;28;20443;-83
2023/07/27 07:46:15;;;;;;;7.97;3.83;;;;;;;-141.97;40.17;47276.91;5051348;28;20426;-82
2023/07/27 07:48:40;;;;;;;7.23;3.40;;;;;;;-141.97;39.86;47319.19;5051816;28;20442;-81
2023/07/27 07:51:14;;;;;;;8.48;3.92;;;;;;;-141.97;40.87;47446.03;5051872;28;20414;-81
2023/07/27 07:53:39;;;;;;;7.88;3.97;;;;;;;-141.97;40.75;47357.63;5052235;28;20411;-81
2023/07/27 07:56:12;;;;;;;5.00;3.20;;;;;;;-141.97;40.60;47390.31;5050250;28;20411;-82
2023/07/27 07:58:37;;;;;;;6.88;3.55;;;;;;;-141.97;40.62;47426.81;5051762;28;20415;-82
2023/07/27 08:01:03;;;;;;;5.33;3.90;;;;;;;-141.97;41.11;47415.28;5050044;28;20410;-84
2023/07/27 08:03:28;;;;;;;6.20;3.80;;;;;;;-141.97;41.52;47398.00;5051684;28;20506;-82
2023/07/27 08:05:54;;;;;;;7.80;3.97;;;;;;;-141.97;42.23;47538.28;5050202;28;20904;-82
2023/07/27 08:08:19;;;;;;;5.33;3.60;;;;;;;-141.97;41.54;47540.22;5051358;28;20411;-81
2023/07/27 08:10:44;;;;;;;3.50;3.20;;;;;;;-141.97;41.44;47496.00;5043356;28;20324;-82
2023/07/27 08:13:10;;;;;;;5.43;3.25;;;;;;;-141.97;41.38;47257.69;5050361;28;20414;-83
2023/07/27 08:15:35;;;;;;;6.80;3.53;;;;;;;-141.97;40.58;47538.28;5051076;28;20952;-82
2023/07/27 08:18:01;;;;;;;5.33;3.67;;;;;;;-141.97;40.55;47424.91;5052182;28;20408;-83
2023/07/27 08:20:27;;;;;;;4.68;3.50;;;;;;;-141.97;40.54;47422.97;5052013;28;20938;-82
2023/07/27 08:22:52;;;;;;;6.17;3.70;;;;;;;-141.97;40.72;47438.34;5051181;28;20418;-82
2023/07/27 08:25:17;;;;;;;7.73;3.40;;;;;;;-141.97;40.15;47486.41;5052099;28;20212;-82
2023/07/27 08:27:43;;;;;;;4.25;3.30;;;;;;;-141.97;40.26;47430.66;5051275;28;20419;-82
2023/07/27 08:30:08;;;;;;;5.70;3.80;;;;;;;-141.97;41.12;47419.13;5051361;28;20537;-82
2023/07/27 08:32:34;;;;;;;6.60;4.50;;;;;;;-141.97;40.92;47380.69;5050825;28;20477;-82
2023/07/27 08:34:59;;;;;;;7.47;4.97;;;;;;;-141.97;41.15;47338.41;5051757;28;20788;-82
2023/07/27 08:37:25;;;;;;;7.53;5.90;;;;;;;-141.97;41.08;47522.91;5049874;28;20432;-82
2023/07/27 08:39:51;;;;;;;6.17;4.70;;;;;;;-141.97;40.95;47307.66;5050003;28;20505;-82
2023/07/27 08:42:16;;;;;;;5.57;4.40;;;;;;;-141.97;41.25;47444.13;5051173;28;20411;-82
2023/07/27 08:44:43;;;;;;;8.87;4.20;;;;;;;-141.97;40.23;47617.09;5051105;28;20582;-82
2023/07/27 08:47:09;;;;;;;6.18;4.57;;;;;;;-141.97;41.53;47403.75;5050822;28;20418;-82
2023/07/27 08:49:36;;;;;;;5.32;4.20;;;;;;;-141.97;42.32;47424.91;5050724;28;20498;-81
2023/07/27 08:52:02;;;;;;;7.40;4.63;;;;;;;-141.97;43.26;47578.66;5053848;28;20911;-80
2023/07/27 08:54:29;;;;;;;6.78;4.95;;;;;;;-141.97;44.24;47342.25;5055229;28;20418;-82
2023/07/27 08:56:54;;;;;;;5.90;4.67;;;;;;;-141.97;45.81;47594.03;5051655;28;20183;-81
2023/07/27 08:59:20;;;;;;;6.10;4.70;;;;;;;-141.97;46.01;47463.34;5049919;28;20490;-81
2023/07/27 09:01:45;;;;;;;5.67;4.63;;;;;;;-141.97;49.27;47298.06;5051598;28;20456;-81
2023/07/27 09:04:11;;;;;;;9.63;4.90;;;;;;;-141.97;52.61;47219.25;5051119;28;20687;-82
2023/07/27 09:06:44;;;;;;;7.10;4.70;;;;;;;-141.97;49.61;47499.84;5051801;28;20157;-83
2023/07/27 09:09:12;;;;;;;5.67;4.80;;;;;;;-141.97;47.46;47442.19;5051824;28;20162;-82
2023/07/27 09:11:39;;;;;;;6.87;5.23;;;;;;;-141.97;46.42;47411.44;5042461;28;20233;-83
2023/07/27 09:14:04;;;;;;;11.77;4.87;;;;;;;-141.97;45.17;47365.31;5049860;28;20594;-83
2023/07/27 09:16:33;;;;;;;7.27;5.10;;;;;;;-141.97;44.28;47449.88;5052397;28;20158;-82
2023/07/27 09:19:00;;;;;;;5.97;4.30;;;;;;;-141.97;43.71;47471.03;5051174;28;20495;-82
2023/07/27 09:21:26;;;;;;;6.00;4.82;;;;;;;-141.97;43.45;47442.19;5050910;28;20415;-81
2023/07/27 09:23:52;;;;;;;5.15;4.07;;;;;;;-141.97;41.90;47248.09;5049651;28;20431;-82
2023/07/27 09:26:26;;;;;;;6.03;3.63;;;;;;;-141.97;39.85;47413.38;5051009;28;20491;-82
2023/07/27 09:28:53;;;;;;;4.63;3.70;;;;;;;-141.97;39.30;47413.38;5050443;28;20788;-83
2023/07/27 09:31:19;;;;;;;3.80;3.10;;;;;;;-141.97;38.83;47380.69;5050699;28;20481;-82
2023/07/27 09:33:44;;;;;;;5.47;3.70;;;;;;;-141.97;38.40;47426.81;5051884;28;20540;-83
2023/07/27 09:36:10;;;;;;;3.67;3.10;;;;;;;-141.97;37.63;47430.66;5050162;28;20427;-85
2023/07/27 09:38:35;;;;;;;5.75;3.13;;;;;;;-141.97;37.64;47620.94;5050458;28;20441;-84
2023/07/27 09:41:07;;;;;;;4.03;3.00;;;;;;;-141.97;36.96;47353.78;5051223;28;20165;-83
2023/07/27 09:43:37;;;;;;;3.30;3.00;;;;;;;-141.97;36.62;47384.53;5050795;28;20236;-83
2023/07/27 09:46:03;;;;;;;3.53;3.13;;;;;;;-141.97;36.21;47434.50;5050371;28;20843;-83
2023/07/27 09:48:28;;;;;;;3.90;2.80;;;;;;;-141.97;35.66;47388.38;5050431;28;20469;-83
2023/07/27 09:50:54;;;;;;;4.43;3.00;;;;;;;-141.97;35.29;47201.97;5050606;28;20524;-84
2023/07/27 09:53:21;;;;;;;4.83;3.20;;;;;;;-141.97;35.08;47276.91;5050073;28;20157;-83
2023/07/27 09:55:49;;;;;;;6.67;3.47;;;;;;;-141.97;34.50;47265.38;5050754;28;20276;-83
2023/07/27 09:58:15;;;;;;;3.70;3.17;;;;;;;-141.97;34.09;47401.84;5043409;28;20213;-84
2023/07/27 10:00:41;;;;;;;4.15;2.88;;;;;;;-141.97;34.14;47353.78;5031411;28;20813;-84
2023/07/27 10:03:07;;;;;;;6.38;3.30;;;;;;;-141.97;34.16;47380.69;5031476;28;20166;-83
2023/07/27 10:05:35;;;;;;;7.03;3.53;;;;;;;-141.97;33.25;47380.69;5042229;28;20180;-83
2023/07/27 10:08:03;;;;;;;4.53;3.05;;;;;;;-141.97;33.37;47205.81;5051038;28;20209;-83
2023/07/27 10:10:31;;;;;;;7.47;3.53;;;;;;;-141.97;33.19;47369.16;5041151;28;20257;-83
2023/07/27 10:12:57;;;;;;;4.93;3.20;;;;;;;-141.97;33.08;47369.16;5051075;28;20167;-82
2023/07/27 10:15:28;;;;;;;6.35;2.88;;;;;;;-141.97;32.28;47373.00;5050710;28;20177;-82
2023/07/27 10:17:59;;;;;;;8.30;3.10;;;;;;;-141.97;32.50;47359.56;5050718;28;20529;-83
2023/07/27 10:20:30;;;;;;;5.50;3.10;;;;;;;-141.97;32.26;47307.66;5083001;28;20169;-83
2023/07/27 10:23:13;;;;;;;4.78;2.90;;;;;;;-141.97;32.08;47361.47;5050508;28;20176;-83
2023/07/27 10:25:59;;;;;;;5.80;2.30;;;;;;;-141.97;32.30;47326.88;5055137;28;20355;-83
2023/07/27 10:28:43;;;;;;;7.07;3.10;;;;;;;-141.97;32.65;47353.78;5061909;28;20473;-84
2023/07/27 10:31:25;;;;;;;6.10;3.22;;;;;;;-141.97;32.11;47365.31;5056977;28;20165;-84
2023/07/27 10:34:17;;;;;;;3.72;2.53;;;;;;;-141.97;31.72;47361.47;5052613;28;20159;-83
2023/07/27 10:36:51;;;;;;;5.38;2.65;;;;;;;-141.97;31.57;47351.88;4990868;28;20895;-84
2023/07/27 10:39:19;;;;;;;6.50;3.00;;;;;;;-141.97;31.37;47332.66;5008380;28;20165;-84
2023/07/27 10:42:00;;;;;;;6.55;3.05;;;;;;;-141.97;30.89;47353.78;5008018;28;20201;-84
2023/07/27 10:44:39;;;;;;;7.53;2.92;;;;;;;-141.97;31.17;47338.41;5007806;28;20594;-83
2023/07/27 10:47:07;;;;;;;4.20;2.42;;;;;;;-141.97;31.47;47273.06;4990003;28;20458;-83
2023/07/27 10:49:37;;;;;;;5.72;2.80;;;;;;;-141.97;31.33;47192.34;5007366;28;20186;-83
2023/07/27 10:52:03;;;;;;;6.50;2.97;;;;;;;-141.97;31.18;47219.25;5002503;28;20666;-84
2023/07/27 10:54:29;;;;;;;5.30;2.88;;;;;;;-141.97;30.41;47342.25;5007599;28;20237;-82
2023/07/27 10:56:55;;;;;;;5.38;3.30;;;;;;;-141.97;30.60;47276.91;5007011;28;20489;-82
2023/07/27 10:59:21;;;;;;;6.75;3.00;;;;;;;-141.97;30.84;47255.78;5007803;28;20176;-83
2023/07/27 11:01:48;;;;;;;4.38;2.47;;;;;;;-141.97;30.75;47323.03;5007609;28;20186;-82
2023/07/27 11:04:13;;;;;;;4.78;2.95;;;;;;;-141.97;30.78;47584.44;5007419;28;20229;-83
2023/07/27 11:06:44;;;;;;;3.87;2.53;;;;;;;-141.97;30.98;47336.50;5006953;28;20454;-82
2023/07/27 11:09:15;;;;;;;5.65;2.53;;;;;;;-141.97;30.55;47336.50;5007897;28;20827;-82
2023/07/27 11:11:41;;;;;;;5.15;3.08;;;;;;;-141.97;30.53;47261.53;4997871;28;20250;-82
2023/07/27 11:14:07;;;;;;;7.43;3.10;;;;;;;-141.97;30.53;47346.09;5039442;28;20180;-82